sensor_id;sensor_type;location;lat;lon;timestamp;P1;durP1;ratioP1;P2;durP2;ratioP2
35909;SDS011;22004;49.120;-0.200;2023-02-18T00:00:37;7.47;;;1.83;;
35909;SDS011;22004;49.120;-0.200;2023-02-18T00:03:02;3.47;;;1.70;;
35909;SDS011;22004;49.120;-0.200;2023-02-18T00:05:28;5.25;;;1.88;;
35909;SDS011;22004;49.120;-0.200;2023-02-18T00:07:53;2.95;;;1.40;;
35909;SDS011;22004;49.120;-0.200;2023-02-18T00:10:19;4.32;;;1.60;;
35909;SDS011;22004;49.120;-0.200;2023-02-18T00:12:44;6.57;;;1.70;;
35909;SDS011;22004;49.120;-0.200;2023-02-18T00:15:10;5.10;;;1.50;;
35909;SDS011;22004;49.120;-0.200;2023-02-18T00:17:36;6.05;;;1.45;;
35909;SDS011;22004;49.120;-0.200;2023-02-18T00:20:01;6.00;;;1.58;;
35909;SDS011;22004;49.120;-0.200;2023-02-18T00:22:28;10.20;;;1.80;;
35909;SDS011;22004;49.120;-0.200;2023-02-18T00:24:53;5.97;;;2.00;;
35909;SDS011;22004;49.120;-0.200;2023-02-18T00:27:18;5.72;;;1.85;;
35909;SDS011;22004;49.120;-0.200;2023-02-18T00:29:44;5.68;;;1.52;;
35909;SDS011;22004;49.120;-0.200;2023-02-18T00:32:09;5.38;;;1.65;;
35909;SDS011;22004;49.120;-0.200;2023-02-18T00:34:34;4.53;;;1.90;;
35909;SDS011;22004;49.120;-0.200;2023-02-18T00:37:00;7.15;;;1.52;;
35909;SDS011;22004;49.120;-0.200;2023-02-18T00:39:25;4.20;;;1.50;;
35909;SDS011;22004;49.120;-0.200;2023-02-18T00:41:51;2.95;;;1.50;;
35909;SDS011;22004;49.120;-0.200;2023-02-18T00:44:16;5.60;;;1.38;;
35909;SDS011;22004;49.120;-0.200;2023-02-18T00:46:41;5.38;;;1.80;;
35909;SDS011;22004;49.120;-0.200;2023-02-18T00:49:07;5.78;;;1.23;;
35909;SDS011;22004;49.120;-0.200;2023-02-18T00:51:33;6.25;;;1.50;;
35909;SDS011;22004;49.120;-0.200;2023-02-18T00:53:59;7.28;;;1.50;;
35909;SDS011;22004;49.120;-0.200;2023-02-18T00:56:24;7.07;;;1.58;;
35909;SDS011;22004;49.120;-0.200;2023-02-18T00:58:50;9.48;;;1.75;;
35909;SDS011;22004;49.120;-0.200;2023-02-18T01:01:16;4.75;;;1.80;;
35909;SDS011;22004;49.120;-0.200;2023-02-18T01:03:42;5.30;;;1.58;;
35909;SDS011;22004;49.120;-0.200;2023-02-18T01:06:08;10.98;;;2.75;;
35909;SDS011;22004;49.120;-0.200;2023-02-18T01:08:35;6.70;;;1.77;;
35909;SDS011;22004;49.120;-0.200;2023-02-18T01:11:01;4.45;;;1.55;;
35909;SDS011;22004;49.120;-0.200;2023-02-18T01:13:28;6.90;;;1.83;;
35909;SDS011;22004;49.120;-0.200;2023-02-18T01:15:53;5.97;;;1.63;;
35909;SDS011;22004;49.120;-0.200;2023-02-18T01:18:19;8.55;;;1.73;;
35909;SDS011;22004;49.120;-0.200;2023-02-18T01:20:45;3.03;;;1.23;;
35909;SDS011;22004;49.120;-0.200;2023-02-18T01:23:12;5.38;;;1.42;;
35909;SDS011;22004;49.120;-0.200;2023-02-18T01:25:38;6.10;;;1.48;;
35909;SDS011;22004;49.120;-0.200;2023-02-18T01:28:05;5.93;;;1.70;;
35909;SDS011;22004;49.120;-0.200;2023-02-18T01:30:32;4.35;;;1.83;;
35909;SDS011;22004;49.120;-0.200;2023-02-18T01:32:58;5.15;;;1.40;;
35909;SDS011;22004;49.120;-0.200;2023-02-18T01:35:24;10.25;;;1.58;;
35909;SDS011;22004;49.120;-0.200;2023-02-18T01:37:50;3.47;;;1.40;;
35909;SDS011;22004;49.120;-0.200;2023-02-18T01:40:17;4.45;;;1.20;;
35909;SDS011;22004;49.120;-0.200;2023-02-18T01:42:45;3.03;;;1.25;;
35909;SDS011;22004;49.120;-0.200;2023-02-18T01:47:54;4.57;;;1.50;;
35909;SDS011;22004;49.120;-0.200;2023-02-18T01:50:19;5.60;;;1.40;;
35909;SDS011;22004;49.120;-0.200;2023-02-18T01:52:45;3.42;;;1.50;;
35909;SDS011;22004;49.120;-0.200;2023-02-18T01:55:11;4.85;;;1.70;;
35909;SDS011;22004;49.120;-0.200;2023-02-18T01:57:36;6.53;;;1.90;;
35909;SDS011;22004;49.120;-0.200;2023-02-18T02:02:30;5.07;;;1.98;;
35909;SDS011;22004;49.120;-0.200;2023-02-18T02:04:59;5.15;;;1.90;;
35909;SDS011;22004;49.120;-0.200;2023-02-18T02:07:25;7.20;;;1.90;;
35909;SDS011;22004;49.120;-0.200;2023-02-18T02:09:52;4.93;;;1.60;;
35909;SDS011;22004;49.120;-0.200;2023-02-18T02:12:24;7.63;;;1.60;;
35909;SDS011;22004;49.120;-0.200;2023-02-18T02:15:48;17.40;;;6.85;;
35909;SDS011;22004;49.120;-0.200;2023-02-18T02:24:22;8.43;;;2.55;;
35909;SDS011;22004;49.120;-0.200;2023-02-18T02:27:20;6.28;;;1.90;;
35909;SDS011;22004;49.120;-0.200;2023-02-18T02:29:58;4.25;;;1.70;;
35909;SDS011;22004;49.120;-0.200;2023-02-18T02:32:53;5.40;;;1.90;;
35909;SDS011;22004;49.120;-0.200;2023-02-18T02:35:25;5.63;;;1.98;;
35909;SDS011;22004;49.120;-0.200;2023-02-18T02:38:01;3.53;;;1.67;;
35909;SDS011;22004;49.120;-0.200;2023-02-18T02:40:41;7.90;;;2.17;;
35909;SDS011;22004;49.120;-0.200;2023-02-18T02:43:21;6.53;;;1.83;;
35909;SDS011;22004;49.120;-0.200;2023-02-18T02:45:54;3.78;;;1.60;;
35909;SDS011;22004;49.120;-0.200;2023-02-18T02:51:12;6.75;;;1.70;;
35909;SDS011;22004;49.120;-0.200;2023-02-18T02:53:42;5.22;;;1.80;;
35909;SDS011;22004;49.120;-0.200;2023-02-18T02:56:10;4.88;;;1.40;;
35909;SDS011;22004;49.120;-0.200;2023-02-18T02:58:39;3.45;;;1.20;;
35909;SDS011;22004;49.120;-0.200;2023-02-18T03:06:58;5.78;;;1.50;;
35909;SDS011;22004;49.120;-0.200;2023-02-18T03:15:58;5.43;;;1.75;;
35909;SDS011;22004;49.120;-0.200;2023-02-18T03:18:35;5.43;;;1.77;;
35909;SDS011;22004;49.120;-0.200;2023-02-18T03:21:06;4.32;;;1.50;;
35909;SDS011;22004;49.120;-0.200;2023-02-18T03:23:36;4.60;;;1.48;;
35909;SDS011;22004;49.120;-0.200;2023-02-18T03:26:08;4.68;;;1.27;;
35909;SDS011;22004;49.120;-0.200;2023-02-18T03:28:36;3.88;;;1.40;;
35909;SDS011;22004;49.120;-0.200;2023-02-18T03:31:08;6.78;;;1.70;;
35909;SDS011;22004;49.120;-0.200;2023-02-18T03:33:42;9.18;;;1.92;;
35909;SDS011;22004;49.120;-0.200;2023-02-18T03:36:10;8.85;;;1.63;;
35909;SDS011;22004;49.120;-0.200;2023-02-18T03:38:37;8.15;;;1.70;;
35909;SDS011;22004;49.120;-0.200;2023-02-18T03:41:09;6.32;;;1.60;;
35909;SDS011;22004;49.120;-0.200;2023-02-18T03:43:34;7.60;;;1.70;;
35909;SDS011;22004;49.120;-0.200;2023-02-18T03:46:00;2.90;;;1.52;;
35909;SDS011;22004;49.120;-0.200;2023-02-18T03:48:27;5.15;;;1.58;;
35909;SDS011;22004;49.120;-0.200;2023-02-18T03:50:52;5.55;;;1.42;;
35909;SDS011;22004;49.120;-0.200;2023-02-18T03:53:18;5.53;;;1.98;;
35909;SDS011;22004;49.120;-0.200;2023-02-18T03:55:43;6.80;;;1.83;;
35909;SDS011;22004;49.120;-0.200;2023-02-18T03:58:08;5.35;;;1.75;;
35909;SDS011;22004;49.120;-0.200;2023-02-18T04:00:34;7.75;;;1.60;;
35909;SDS011;22004;49.120;-0.200;2023-02-18T04:02:59;8.65;;;1.70;;
35909;SDS011;22004;49.120;-0.200;2023-02-18T04:05:25;3.55;;;1.60;;
35909;SDS011;22004;49.120;-0.200;2023-02-18T04:07:50;6.40;;;1.40;;
35909;SDS011;22004;49.120;-0.200;2023-02-18T04:10:15;6.63;;;1.77;;
35909;SDS011;22004;49.120;-0.200;2023-02-18T04:12:41;2.72;;;1.35;;
35909;SDS011;22004;49.120;-0.200;2023-02-18T04:15:06;318.08;;;23.20;;
35909;SDS011;22004;49.120;-0.200;2023-02-18T04:17:32;416.45;;;32.22;;
35909;SDS011;22004;49.120;-0.200;2023-02-18T04:19:58;37.70;;;4.10;;
35909;SDS011;22004;49.120;-0.200;2023-02-18T04:22:24;190.07;;;14.45;;
35909;SDS011;22004;49.120;-0.200;2023-02-18T04:24:49;157.73;;;12.38;;
35909;SDS011;22004;49.120;-0.200;2023-02-18T04:27:14;150.57;;;12.23;;
35909;SDS011;22004;49.120;-0.200;2023-02-18T04:29:40;251.50;;;24.08;;
35909;SDS011;22004;49.120;-0.200;2023-02-18T04:32:05;299.90;;;25.77;;
35909;SDS011;22004;49.120;-0.200;2023-02-18T04:34:30;31.70;;;4.35;;
35909;SDS011;22004;49.120;-0.200;2023-02-18T04:36:56;289.55;;;25.10;;
35909;SDS011;22004;49.120;-0.200;2023-02-18T04:39:21;214.20;;;19.02;;
35909;SDS011;22004;49.120;-0.200;2023-02-18T04:41:47;96.20;;;9.68;;
35909;SDS011;22004;49.120;-0.200;2023-02-18T04:44:12;46.70;;;5.03;;
35909;SDS011;22004;49.120;-0.200;2023-02-18T04:46:38;130.98;;;12.00;;
35909;SDS011;22004;49.120;-0.200;2023-02-18T04:49:03;153.55;;;14.88;;
35909;SDS011;22004;49.120;-0.200;2023-02-18T04:51:28;108.85;;;10.70;;
35909;SDS011;22004;49.120;-0.200;2023-02-18T04:53:54;132.13;;;13.30;;
35909;SDS011;22004;49.120;-0.200;2023-02-18T04:56:19;121.82;;;10.23;;
35909;SDS011;22004;49.120;-0.200;2023-02-18T04:58:44;41.15;;;5.85;;
35909;SDS011;22004;49.120;-0.200;2023-02-18T05:01:10;69.95;;;7.35;;
35909;SDS011;22004;49.120;-0.200;2023-02-18T05:03:35;19.05;;;2.78;;
35909;SDS011;22004;49.120;-0.200;2023-02-18T05:06:01;144.23;;;14.75;;
35909;SDS011;22004;49.120;-0.200;2023-02-18T05:08:27;32.53;;;4.57;;
35909;SDS011;22004;49.120;-0.200;2023-02-18T05:10:52;71.32;;;7.63;;
35909;SDS011;22004;49.120;-0.200;2023-02-18T05:13:18;115.20;;;11.05;;
35909;SDS011;22004;49.120;-0.200;2023-02-18T05:15:43;54.08;;;7.57;;
35909;SDS011;22004;49.120;-0.200;2023-02-18T05:18:09;109.03;;;10.43;;
35909;SDS011;22004;49.120;-0.200;2023-02-18T05:20:34;127.95;;;12.15;;
35909;SDS011;22004;49.120;-0.200;2023-02-18T05:22:59;69.03;;;7.22;;
35909;SDS011;22004;49.120;-0.200;2023-02-18T05:25:25;118.97;;;11.40;;
35909;SDS011;22004;49.120;-0.200;2023-02-18T05:27:50;95.93;;;11.45;;
35909;SDS011;22004;49.120;-0.200;2023-02-18T05:30:16;81.10;;;8.27;;
35909;SDS011;22004;49.120;-0.200;2023-02-18T05:32:41;56.90;;;7.05;;
35909;SDS011;22004;49.120;-0.200;2023-02-18T05:35:07;27.27;;;4.10;;
35909;SDS011;22004;49.120;-0.200;2023-02-18T05:37:33;10.52;;;2.50;;
35909;SDS011;22004;49.120;-0.200;2023-02-18T05:39:58;64.35;;;7.40;;
35909;SDS011;22004;49.120;-0.200;2023-02-18T05:42:24;56.85;;;6.68;;
35909;SDS011;22004;49.120;-0.200;2023-02-18T05:44:49;33.00;;;4.88;;
35909;SDS011;22004;49.120;-0.200;2023-02-18T05:47:14;73.32;;;7.75;;
35909;SDS011;22004;49.120;-0.200;2023-02-18T05:49:40;42.70;;;4.45;;
35909;SDS011;22004;49.120;-0.200;2023-02-18T05:52:07;67.57;;;8.00;;
35909;SDS011;22004;49.120;-0.200;2023-02-18T05:54:33;11.65;;;2.33;;
35909;SDS011;22004;49.120;-0.200;2023-02-18T05:56:59;27.73;;;4.30;;
35909;SDS011;22004;49.120;-0.200;2023-02-18T05:59:25;71.32;;;8.02;;
35909;SDS011;22004;49.120;-0.200;2023-02-18T06:01:50;49.25;;;5.65;;
35909;SDS011;22004;49.120;-0.200;2023-02-18T06:04:16;23.40;;;3.00;;
35909;SDS011;22004;49.120;-0.200;2023-02-18T06:06:41;21.98;;;3.25;;
35909;SDS011;22004;49.120;-0.200;2023-02-18T06:09:07;25.98;;;4.53;;
35909;SDS011;22004;49.120;-0.200;2023-02-18T06:11:33;46.47;;;5.57;;
35909;SDS011;22004;49.120;-0.200;2023-02-18T06:13:59;21.35;;;2.75;;
35909;SDS011;22004;49.120;-0.200;2023-02-18T06:16:25;21.48;;;3.67;;
35909;SDS011;22004;49.120;-0.200;2023-02-18T06:18:51;24.17;;;4.53;;
35909;SDS011;22004;49.120;-0.200;2023-02-18T06:21:16;13.13;;;2.03;;
35909;SDS011;22004;49.120;-0.200;2023-02-18T06:23:42;31.52;;;4.05;;
35909;SDS011;22004;49.120;-0.200;2023-02-18T06:26:07;42.58;;;5.93;;
35909;SDS011;22004;49.120;-0.200;2023-02-18T06:28:32;36.90;;;5.45;;
35909;SDS011;22004;49.120;-0.200;2023-02-18T06:30:58;32.20;;;4.70;;
35909;SDS011;22004;49.120;-0.200;2023-02-18T06:33:23;58.83;;;5.72;;
35909;SDS011;22004;49.120;-0.200;2023-02-18T06:35:56;26.08;;;3.85;;
35909;SDS011;22004;49.120;-0.200;2023-02-18T06:38:23;30.23;;;4.78;;
35909;SDS011;22004;49.120;-0.200;2023-02-18T06:40:48;22.27;;;3.30;;
35909;SDS011;22004;49.120;-0.200;2023-02-18T06:43:14;23.33;;;2.78;;
35909;SDS011;22004;49.120;-0.200;2023-02-18T06:45:39;40.10;;;5.13;;
35909;SDS011;22004;49.120;-0.200;2023-02-18T06:48:05;41.35;;;5.15;;
35909;SDS011;22004;49.120;-0.200;2023-02-18T06:50:30;30.13;;;3.67;;
35909;SDS011;22004;49.120;-0.200;2023-02-18T06:52:55;14.35;;;2.20;;
35909;SDS011;22004;49.120;-0.200;2023-02-18T06:55:21;29.98;;;4.25;;
35909;SDS011;22004;49.120;-0.200;2023-02-18T06:57:46;24.83;;;3.55;;
35909;SDS011;22004;49.120;-0.200;2023-02-18T07:00:12;21.63;;;3.50;;
35909;SDS011;22004;49.120;-0.200;2023-02-18T07:02:37;24.33;;;3.92;;
35909;SDS011;22004;49.120;-0.200;2023-02-18T07:05:03;28.90;;;4.30;;
35909;SDS011;22004;49.120;-0.200;2023-02-18T07:07:29;22.80;;;3.67;;
35909;SDS011;22004;49.120;-0.200;2023-02-18T07:09:55;21.67;;;3.60;;
35909;SDS011;22004;49.120;-0.200;2023-02-18T07:12:20;16.10;;;3.17;;
35909;SDS011;22004;49.120;-0.200;2023-02-18T07:14:45;17.02;;;2.75;;
35909;SDS011;22004;49.120;-0.200;2023-02-18T07:17:11;22.27;;;3.53;;
35909;SDS011;22004;49.120;-0.200;2023-02-18T07:19:36;11.77;;;2.40;;
35909;SDS011;22004;49.120;-0.200;2023-02-18T07:22:01;14.77;;;3.45;;
35909;SDS011;22004;49.120;-0.200;2023-02-18T07:24:27;20.08;;;2.83;;
35909;SDS011;22004;49.120;-0.200;2023-02-18T07:26:52;17.58;;;3.13;;
35909;SDS011;22004;49.120;-0.200;2023-02-18T07:29:17;19.35;;;2.55;;
35909;SDS011;22004;49.120;-0.200;2023-02-18T07:31:43;10.77;;;2.42;;
35909;SDS011;22004;49.120;-0.200;2023-02-18T07:34:08;21.70;;;3.78;;
35909;SDS011;22004;49.120;-0.200;2023-02-18T07:36:33;19.95;;;3.10;;
35909;SDS011;22004;49.120;-0.200;2023-02-18T07:38:59;12.50;;;2.25;;
35909;SDS011;22004;49.120;-0.200;2023-02-18T07:41:24;19.48;;;2.83;;
35909;SDS011;22004;49.120;-0.200;2023-02-18T07:43:49;11.77;;;2.97;;
35909;SDS011;22004;49.120;-0.200;2023-02-18T07:46:15;16.48;;;2.42;;
35909;SDS011;22004;49.120;-0.200;2023-02-18T07:48:41;11.05;;;2.78;;
35909;SDS011;22004;49.120;-0.200;2023-02-18T07:51:07;14.93;;;2.80;;
35909;SDS011;22004;49.120;-0.200;2023-02-18T07:53:35;14.38;;;2.28;;
35909;SDS011;22004;49.120;-0.200;2023-02-18T07:56:01;17.85;;;3.85;;
35909;SDS011;22004;49.120;-0.200;2023-02-18T07:58:27;11.60;;;2.47;;
35909;SDS011;22004;49.120;-0.200;2023-02-18T08:00:54;12.52;;;2.25;;
35909;SDS011;22004;49.120;-0.200;2023-02-18T08:03:25;10.35;;;2.55;;
35909;SDS011;22004;49.120;-0.200;2023-02-18T08:05:52;13.38;;;2.95;;
35909;SDS011;22004;49.120;-0.200;2023-02-18T08:08:19;16.42;;;2.67;;
35909;SDS011;22004;49.120;-0.200;2023-02-18T08:10:48;17.23;;;2.90;;
35909;SDS011;22004;49.120;-0.200;2023-02-18T08:13:15;11.93;;;2.20;;
35909;SDS011;22004;49.120;-0.200;2023-02-18T08:15:40;11.20;;;2.42;;
35909;SDS011;22004;49.120;-0.200;2023-02-18T08:18:07;10.75;;;2.33;;
35909;SDS011;22004;49.120;-0.200;2023-02-18T08:20:36;12.98;;;2.67;;
35909;SDS011;22004;49.120;-0.200;2023-02-18T08:23:05;14.25;;;2.35;;
35909;SDS011;22004;49.120;-0.200;2023-02-18T08:25:30;9.65;;;2.45;;
35909;SDS011;22004;49.120;-0.200;2023-02-18T08:27:56;10.18;;;2.10;;
35909;SDS011;22004;49.120;-0.200;2023-02-18T08:30:22;13.98;;;2.13;;
35909;SDS011;22004;49.120;-0.200;2023-02-18T08:32:47;9.32;;;2.55;;
35909;SDS011;22004;49.120;-0.200;2023-02-18T08:35:13;11.13;;;2.42;;
35909;SDS011;22004;49.120;-0.200;2023-02-18T08:37:38;8.60;;;1.90;;
35909;SDS011;22004;49.120;-0.200;2023-02-18T08:40:04;10.63;;;1.98;;
35909;SDS011;22004;49.120;-0.200;2023-02-18T08:42:30;10.05;;;1.95;;
35909;SDS011;22004;49.120;-0.200;2023-02-18T08:44:55;14.00;;;2.92;;
35909;SDS011;22004;49.120;-0.200;2023-02-18T08:47:21;10.02;;;2.47;;
35909;SDS011;22004;49.120;-0.200;2023-02-18T08:49:46;10.27;;;2.10;;
35909;SDS011;22004;49.120;-0.200;2023-02-18T08:52:11;10.27;;;2.17;;
35909;SDS011;22004;49.120;-0.200;2023-02-18T08:54:37;7.22;;;1.63;;
35909;SDS011;22004;49.120;-0.200;2023-02-18T08:57:02;10.60;;;1.98;;
35909;SDS011;22004;49.120;-0.200;2023-02-18T08:59:27;8.60;;;2.33;;
35909;SDS011;22004;49.120;-0.200;2023-02-18T09:01:53;7.75;;;2.38;;
35909;SDS011;22004;49.120;-0.200;2023-02-18T09:04:18;10.00;;;2.17;;
35909;SDS011;22004;49.120;-0.200;2023-02-18T09:06:45;13.57;;;2.65;;
35909;SDS011;22004;49.120;-0.200;2023-02-18T09:09:11;10.18;;;2.22;;
35909;SDS011;22004;49.120;-0.200;2023-02-18T09:11:36;6.05;;;1.65;;
35909;SDS011;22004;49.120;-0.200;2023-02-18T09:14:01;7.85;;;1.92;;
35909;SDS011;22004;49.120;-0.200;2023-02-18T09:16:27;10.00;;;2.17;;
35909;SDS011;22004;49.120;-0.200;2023-02-18T09:18:54;10.50;;;3.15;;
35909;SDS011;22004;49.120;-0.200;2023-02-18T09:21:20;9.73;;;2.13;;
35909;SDS011;22004;49.120;-0.200;2023-02-18T09:23:47;8.50;;;2.60;;
35909;SDS011;22004;49.120;-0.200;2023-02-18T09:26:13;10.98;;;2.60;;
35909;SDS011;22004;49.120;-0.200;2023-02-18T09:28:41;11.48;;;3.25;;
35909;SDS011;22004;49.120;-0.200;2023-02-18T09:31:07;13.45;;;2.40;;
35909;SDS011;22004;49.120;-0.200;2023-02-18T09:33:45;10.70;;;1.87;;
35909;SDS011;22004;49.120;-0.200;2023-02-18T09:36:13;5.50;;;2.45;;
35909;SDS011;22004;49.120;-0.200;2023-02-18T09:38:38;9.48;;;1.77;;
35909;SDS011;22004;49.120;-0.200;2023-02-18T09:41:04;9.07;;;2.00;;
35909;SDS011;22004;49.120;-0.200;2023-02-18T09:43:53;9.63;;;2.85;;
35909;SDS011;22004;49.120;-0.200;2023-02-18T09:46:32;7.43;;;2.05;;
35909;SDS011;22004;49.120;-0.200;2023-02-18T09:49:05;5.85;;;1.80;;
35909;SDS011;22004;49.120;-0.200;2023-02-18T09:51:37;8.55;;;1.90;;
35909;SDS011;22004;49.120;-0.200;2023-02-18T09:54:02;5.88;;;1.98;;
35909;SDS011;22004;49.120;-0.200;2023-02-18T09:56:29;10.00;;;2.00;;
35909;SDS011;22004;49.120;-0.200;2023-02-18T09:58:58;8.20;;;1.80;;
35909;SDS011;22004;49.120;-0.200;2023-02-18T10:01:32;5.85;;;1.77;;
35909;SDS011;22004;49.120;-0.200;2023-02-18T10:04:18;4.28;;;1.52;;
35909;SDS011;22004;49.120;-0.200;2023-02-18T10:06:48;11.52;;;2.20;;
35909;SDS011;22004;49.120;-0.200;2023-02-18T10:09:20;6.00;;;1.63;;
35909;SDS011;22004;49.120;-0.200;2023-02-18T10:11:54;4.13;;;1.85;;
35909;SDS011;22004;49.120;-0.200;2023-02-18T10:14:46;6.28;;;1.73;;
35909;SDS011;22004;49.120;-0.200;2023-02-18T10:17:14;5.20;;;1.65;;
35909;SDS011;22004;49.120;-0.200;2023-02-18T10:19:41;5.03;;;1.48;;
35909;SDS011;22004;49.120;-0.200;2023-02-18T10:22:10;5.82;;;1.52;;
35909;SDS011;22004;49.120;-0.200;2023-02-18T10:24:41;6.63;;;1.60;;
35909;SDS011;22004;49.120;-0.200;2023-02-18T10:27:14;6.18;;;1.73;;
35909;SDS011;22004;49.120;-0.200;2023-02-18T10:29:49;5.78;;;1.65;;
35909;SDS011;22004;49.120;-0.200;2023-02-18T10:40:05;4.60;;;1.40;;
35909;SDS011;22004;49.120;-0.200;2023-02-18T10:50:43;4.22;;;1.77;;
35909;SDS011;22004;49.120;-0.200;2023-02-18T10:53:11;6.57;;;1.52;;
35909;SDS011;22004;49.120;-0.200;2023-02-18T10:55:42;5.82;;;1.30;;
35909;SDS011;22004;49.120;-0.200;2023-02-18T11:01:00;5.55;;;1.23;;
35909;SDS011;22004;49.120;-0.200;2023-02-18T11:03:51;2.83;;;1.13;;
35909;SDS011;22004;49.120;-0.200;2023-02-18T11:06:31;2.13;;;1.20;;
35909;SDS011;22004;49.120;-0.200;2023-02-18T11:09:02;2.90;;;1.20;;
35909;SDS011;22004;49.120;-0.200;2023-02-18T11:11:33;3.75;;;1.10;;
35909;SDS011;22004;49.120;-0.200;2023-02-18T11:14:03;3.45;;;1.13;;
35909;SDS011;22004;49.120;-0.200;2023-02-18T11:16:42;1.67;;;0.70;;
35909;SDS011;22004;49.120;-0.200;2023-02-18T11:24:39;3.13;;;0.85;;
35909;SDS011;22004;49.120;-0.200;2023-02-18T11:27:10;2.97;;;1.13;;
35909;SDS011;22004;49.120;-0.200;2023-02-18T11:29:42;7.10;;;1.90;;
35909;SDS011;22004;49.120;-0.200;2023-02-18T11:32:09;3.28;;;1.30;;
35909;SDS011;22004;49.120;-0.200;2023-02-18T11:34:36;3.38;;;1.08;;
35909;SDS011;22004;49.120;-0.200;2023-02-18T11:37:17;2.75;;;1.10;;
35909;SDS011;22004;49.120;-0.200;2023-02-18T11:39:45;5.53;;;1.15;;
35909;SDS011;22004;49.120;-0.200;2023-02-18T11:42:15;4.03;;;1.30;;
35909;SDS011;22004;49.120;-0.200;2023-02-18T11:44:56;3.42;;;1.40;;
35909;SDS011;22004;49.120;-0.200;2023-02-18T11:49:58;3.83;;;1.10;;
35909;SDS011;22004;49.120;-0.200;2023-02-18T11:52:37;5.85;;;1.10;;
35909;SDS011;22004;49.120;-0.200;2023-02-18T11:55:13;4.93;;;1.38;;
35909;SDS011;22004;49.120;-0.200;2023-02-18T11:57:44;1.77;;;1.10;;
35909;SDS011;22004;49.120;-0.200;2023-02-18T12:00:19;3.05;;;0.90;;
35909;SDS011;22004;49.120;-0.200;2023-02-18T12:02:55;3.70;;;1.00;;
35909;SDS011;22004;49.120;-0.200;2023-02-18T12:05:24;4.05;;;1.10;;
35909;SDS011;22004;49.120;-0.200;2023-02-18T12:07:51;8.07;;;1.27;;
35909;SDS011;22004;49.120;-0.200;2023-02-18T12:10:33;3.78;;;1.00;;
35909;SDS011;22004;49.120;-0.200;2023-02-18T12:13:09;3.72;;;0.85;;
35909;SDS011;22004;49.120;-0.200;2023-02-18T12:15:59;2.25;;;0.93;;
35909;SDS011;22004;49.120;-0.200;2023-02-18T12:29:42;1.92;;;0.75;;
35909;SDS011;22004;49.120;-0.200;2023-02-18T12:38:00;4.53;;;0.88;;
35909;SDS011;22004;49.120;-0.200;2023-02-18T12:40:40;2.10;;;0.70;;
35909;SDS011;22004;49.120;-0.200;2023-02-18T13:06:15;2.72;;;0.80;;
35909;SDS011;22004;49.120;-0.200;2023-02-18T13:11:58;3.35;;;0.93;;
35909;SDS011;22004;49.120;-0.200;2023-02-18T13:14:36;5.40;;;0.90;;
35909;SDS011;22004;49.120;-0.200;2023-02-18T13:17:24;1.63;;;0.90;;
35909;SDS011;22004;49.120;-0.200;2023-02-18T13:22:42;3.45;;;1.13;;
35909;SDS011;22004;49.120;-0.200;2023-02-18T13:25:12;1.45;;;0.90;;
35909;SDS011;22004;49.120;-0.200;2023-02-18T13:27:47;1.58;;;0.85;;
35909;SDS011;22004;49.120;-0.200;2023-02-18T13:30:24;2.42;;;0.95;;
35909;SDS011;22004;49.120;-0.200;2023-02-18T13:35:53;1.95;;;1.13;;
35909;SDS011;22004;49.120;-0.200;2023-02-18T13:41:18;1.35;;;0.98;;
35909;SDS011;22004;49.120;-0.200;2023-02-18T13:43:44;3.10;;;1.73;;
35909;SDS011;22004;49.120;-0.200;2023-02-18T13:46:20;2.03;;;0.95;;
35909;SDS011;22004;49.120;-0.200;2023-02-18T13:48:49;3.50;;;0.75;;
35909;SDS011;22004;49.120;-0.200;2023-02-18T13:52:01;1.27;;;0.70;;
35909;SDS011;22004;49.120;-0.200;2023-02-18T14:02:28;1.80;;;0.77;;
35909;SDS011;22004;49.120;-0.200;2023-02-18T14:05:14;4.28;;;0.90;;
35909;SDS011;22004;49.120;-0.200;2023-02-18T14:31:01;4.45;;;0.90;;
35909;SDS011;22004;49.120;-0.200;2023-02-18T14:33:33;2.05;;;0.73;;
35909;SDS011;22004;49.120;-0.200;2023-02-18T14:50:04;3.50;;;0.70;;
35909;SDS011;22004;49.120;-0.200;2023-02-18T14:52:37;1.30;;;0.70;;
35909;SDS011;22004;49.120;-0.200;2023-02-18T14:55:10;3.15;;;0.70;;
35909;SDS011;22004;49.120;-0.200;2023-02-18T14:57:48;1.65;;;0.85;;
35909;SDS011;22004;49.120;-0.200;2023-02-18T15:02:51;1.40;;;0.70;;
35909;SDS011;22004;49.120;-0.200;2023-02-18T15:05:19;4.63;;;0.80;;
35909;SDS011;22004;49.120;-0.200;2023-02-18T15:07:59;1.30;;;0.70;;
35909;SDS011;22004;49.120;-0.200;2023-02-18T15:10:42;0.60;;;0.47;;
35909;SDS011;22004;49.120;-0.200;2023-02-18T15:15:48;1.47;;;0.60;;
35909;SDS011;22004;49.120;-0.200;2023-02-18T15:18:19;2.17;;;0.80;;
35909;SDS011;22004;49.120;-0.200;2023-02-18T15:20:50;2.83;;;0.73;;
35909;SDS011;22004;49.120;-0.200;2023-02-18T15:23:16;1.88;;;0.77;;
35909;SDS011;22004;49.120;-0.200;2023-02-18T15:25:46;1.13;;;0.70;;
35909;SDS011;22004;49.120;-0.200;2023-02-18T15:28:20;1.35;;;0.90;;
35909;SDS011;22004;49.120;-0.200;2023-02-18T15:30:46;1.80;;;0.70;;
35909;SDS011;22004;49.120;-0.200;2023-02-18T15:33:12;0.95;;;0.63;;
35909;SDS011;22004;49.120;-0.200;2023-02-18T15:35:40;3.03;;;1.17;;
35909;SDS011;22004;49.120;-0.200;2023-02-18T15:38:12;2.05;;;0.52;;
35909;SDS011;22004;49.120;-0.200;2023-02-18T15:40:40;1.27;;;0.57;;
35909;SDS011;22004;49.120;-0.200;2023-02-18T15:43:06;2.58;;;0.80;;
35909;SDS011;22004;49.120;-0.200;2023-02-18T15:45:35;1.25;;;0.60;;
35909;SDS011;22004;49.120;-0.200;2023-02-18T15:48:06;1.08;;;0.80;;
35909;SDS011;22004;49.120;-0.200;2023-02-18T15:50:32;0.90;;;0.70;;
35909;SDS011;22004;49.120;-0.200;2023-02-18T15:53:04;2.35;;;0.60;;
35909;SDS011;22004;49.120;-0.200;2023-02-18T15:55:37;1.27;;;0.82;;
35909;SDS011;22004;49.120;-0.200;2023-02-18T15:58:10;0.80;;;0.73;;
35909;SDS011;22004;49.120;-0.200;2023-02-18T16:09:21;2.87;;;1.10;;
35909;SDS011;22004;49.120;-0.200;2023-02-18T16:12:03;1.55;;;0.70;;
35909;SDS011;22004;49.120;-0.200;2023-02-18T16:17:07;1.10;;;0.90;;
35909;SDS011;22004;49.120;-0.200;2023-02-18T16:19:44;2.47;;;0.95;;
35909;SDS011;22004;49.120;-0.200;2023-02-18T16:24:55;2.65;;;1.00;;
35909;SDS011;22004;49.120;-0.200;2023-02-18T16:27:32;2.50;;;1.00;;
35909;SDS011;22004;49.120;-0.200;2023-02-18T16:30:01;2.53;;;0.90;;
35909;SDS011;22004;49.120;-0.200;2023-02-18T16:32:31;1.77;;;1.00;;
35909;SDS011;22004;49.120;-0.200;2023-02-18T16:34:56;2.97;;;0.98;;
35909;SDS011;22004;49.120;-0.200;2023-02-18T16:37:22;4.15;;;1.70;;
35909;SDS011;22004;49.120;-0.200;2023-02-18T16:40:02;1.80;;;1.00;;
35909;SDS011;22004;49.120;-0.200;2023-02-18T16:42:29;2.20;;;0.68;;
35909;SDS011;22004;49.120;-0.200;2023-02-18T16:44:54;1.40;;;0.90;;
35909;SDS011;22004;49.120;-0.200;2023-02-18T16:47:19;1.80;;;0.90;;
35909;SDS011;22004;49.120;-0.200;2023-02-18T16:49:46;5.55;;;1.00;;
35909;SDS011;22004;49.120;-0.200;2023-02-18T16:52:15;2.50;;;0.90;;
35909;SDS011;22004;49.120;-0.200;2023-02-18T16:54:42;1.02;;;0.70;;
35909;SDS011;22004;49.120;-0.200;2023-02-18T16:57:10;0.80;;;0.80;;
35909;SDS011;22004;49.120;-0.200;2023-02-18T16:59:36;2.08;;;1.17;;
35909;SDS011;22004;49.120;-0.200;2023-02-18T17:02:01;2.63;;;0.90;;
35909;SDS011;22004;49.120;-0.200;2023-02-18T17:04:27;1.88;;;1.00;;
35909;SDS011;22004;49.120;-0.200;2023-02-18T17:06:53;1.73;;;1.00;;
35909;SDS011;22004;49.120;-0.200;2023-02-18T17:09:19;1.52;;;1.17;;
35909;SDS011;22004;49.120;-0.200;2023-02-18T17:11:47;1.17;;;0.98;;
35909;SDS011;22004;49.120;-0.200;2023-02-18T17:14:18;1.95;;;0.93;;
35909;SDS011;22004;49.120;-0.200;2023-02-18T17:16:45;2.20;;;1.30;;
35909;SDS011;22004;49.120;-0.200;2023-02-18T17:19:12;1.33;;;1.00;;
35909;SDS011;22004;49.120;-0.200;2023-02-18T17:21:38;7.10;;;1.25;;
35909;SDS011;22004;49.120;-0.200;2023-02-18T17:24:04;3.50;;;1.40;;
35909;SDS011;22004;49.120;-0.200;2023-02-18T17:26:30;1.15;;;1.00;;